Portada
METAR-TAF:

METAR-TAF

Aeropuertos :

Moroni, Comoras

Aeropuerto Internacional Príncipe Said Ibrahim

latitud: 11-32S, longitud: 043-16E, altitud: 29 m

Observación

El informe se hizo hace 48 minutos, a las 05:00 UTC
Viento 6 kt del sur-sureste
Temperatura 26°C
Humedad 70%
Presión 1015 hPa
Visibilidad 10 km o más
Escasas nubes a una altura de 2000 ft

METAR: FMCH 170500Z 16006KT 9999 FEW020 26/20 Q1015 NOSIG

Hora: 08:48 (05:48 UTC)

Pronóstico

El informe se hizo hace 48 minutos, a las 05:00 UTC
Pronóstico válido del 17 a las 06 UTC al 18 a las 12 UTC
Viento 10 kt del sur-suroeste
Visibilidad 10 km o más
Escasas nubes a una altura de 2000 ft
Evolucionando progresivamente
del 17 a las 16 UTC al 17 a las 18 UTC
Viento 3 kt del este
Evolucionando progresivamente
del 18 a las 05 UTC al 18 a las 07 UTC
Viento 10 kt del sur

TAF: FMCH 170500Z 1706/1812 20010KT 9999 FEW020 BECMG 1716/1718 10003KT BECMG 1805/1807 17010KT

Observaciones y pronósticos meteorológicos de más de 4000 aeropuertos (mensajes METAR y TAF).

Los puntos amarillos y rojos representan las estaciones disponibles.

Ponga el ratón en el punto deseado para ver el nombre de la estación.

Haga clic para ver las observaciones y los pronósticos meteorológicos.

Para cambiar el mapa : haga clic en los botones verdes con una cruz de color negro para hacer un zoom, en el botón verde con un guión para alejar o en las flechas verdes para mapas adyacentes.


METAR-TAF: